Time;durP1;ratioP1;P1;durP2;ratioP2;P2;SDS_P1;SDS_P2;PMS_P1;PMS_P2;Temp;Humidity;BMP_temperature;BMP_pressure;BME280_temperature;BME280_humidity;BME280_pressure;Samples;Min_cycle;Max_cycle;Signal;HPM_P1;HPM_P2
2022/01/31 00:00:33;;;;;;;13.73;3.75;;;;;;;;;;5069078;28;20013;-68
2022/01/31 00:02:58;;;;;;;30.92;2.85;;;;;;;;;;5074289;28;20017;-68
2022/01/31 00:05:23;;;;;;;9.32;2.33;;;;;;;;;;5070422;28;20381;-67
2022/01/31 00:07:49;;;;;;;22.73;3.58;;;;;;;;;;5070863;28;20060;-68
2022/01/31 00:10:16;;;;;;;22.30;2.35;;;;;;;;;;5071376;28;20016;-68
2022/01/31 00:12:57;;;;;;;17.65;3.25;;;;;;;;;;5052910;28;20016;-68
2022/01/31 00:15:22;;;;;;;9.65;2.67;;;;;;;;;;5070921;28;20492;-70
2022/01/31 00:17:47;;;;;;;12.40;3.53;;;;;;;;;;5069396;28;20024;-68
2022/01/31 00:20:12;;;;;;;17.00;4.05;;;;;;;;;;5069640;28;20021;-68
2022/01/31 00:22:38;;;;;;;7.88;2.65;;;;;;;;;;5065358;28;20091;-67
2022/01/31 00:25:03;;;;;;;28.95;5.60;;;;;;;;;;5069860;28;20477;-68
2022/01/31 00:27:28;;;;;;;14.93;2.88;;;;;;;;;;5070145;28;20536;-68
2022/01/31 00:29:53;;;;;;;15.07;4.13;;;;;;;;;;5069338;28;20020;-68
2022/01/31 00:32:18;;;;;;;13.85;2.78;;;;;;;;;;5070515;28;20435;-68
2022/01/31 00:34:44;;;;;;;9.38;2.38;;;;;;;;;;5070470;28;20202;-68
2022/01/31 00:37:09;;;;;;;22.08;4.05;;;;;;;;;;5070427;28;20031;-68
2022/01/31 00:39:36;;;;;;;6.63;3.08;;;;;;;;;;5069893;28;20055;-68
2022/01/31 00:42:04;;;;;;;18.45;5.03;;;;;;;;;;5068671;28;20116;-67
2022/01/31 00:44:40;;;;;;;22.98;3.75;;;;;;;;;;5068387;28;20063;-68
2022/01/31 00:47:16;;;;;;;4.95;1.58;;;;;;;;;;5069095;28;20012;-68
2022/01/31 00:49:49;;;;;;;19.08;3.85;;;;;;;;;;5068056;28;20044;-68
2022/01/31 00:52:14;;;;;;;11.32;2.65;;;;;;;;;;5051092;28;20123;-67
2022/01/31 00:54:39;;;;;;;15.25;2.47;;;;;;;;;;5070248;28;20245;-68
2022/01/31 00:57:04;;;;;;;14.02;2.90;;;;;;;;;;5050889;28;20056;-68
2022/01/31 00:59:29;;;;;;;8.73;3.08;;;;;;;;;;5070346;28;20271;-70
2022/01/31 01:01:55;;;;;;;9.27;3.22;;;;;;;;;;5068827;28;20028;-68
2022/01/31 01:04:20;;;;;;;17.85;3.13;;;;;;;;;;5070928;28;20016;-68
2022/01/31 01:06:45;;;;;;;16.58;2.80;;;;;;;;;;5067826;28;20493;-68
2022/01/31 01:09:11;;;;;;;15.68;4.80;;;;;;;;;;5069720;28;20676;-68
2022/01/31 01:11:36;;;;;;;10.15;2.40;;;;;;;;;;5069485;28;20442;-68
2022/01/31 01:14:02;;;;;;;15.98;1.98;;;;;;;;;;5069089;28;20401;-68
2022/01/31 01:16:27;;;;;;;23.13;4.75;;;;;;;;;;5068188;28;20044;-68
2022/01/31 01:18:52;;;;;;;17.85;2.63;;;;;;;;;;5068920;28;20059;-67
2022/01/31 01:21:17;;;;;;;17.75;3.08;;;;;;;;;;5069335;28;20431;-68
2022/01/31 01:23:43;;;;;;;22.35;3.55;;;;;;;;;;5064754;28;20052;-67
2022/01/31 01:26:08;;;;;;;19.38;2.45;;;;;;;;;;5069234;28;20111;-68
2022/01/31 01:28:34;;;;;;;7.93;2.65;;;;;;;;;;5068826;28;20048;-68
2022/01/31 01:30:59;;;;;;;22.30;3.00;;;;;;;;;;5069375;28;20127;-68
2022/01/31 01:33:25;;;;;;;14.13;3.58;;;;;;;;;;5069857;28;20032;-68
2022/01/31 01:35:53;;;;;;;14.50;2.80;;;;;;;;;;5051049;28;20024;-68
2022/01/31 01:38:19;;;;;;;14.60;3.47;;;;;;;;;;5069631;28;20019;-68
2022/01/31 01:40:45;;;;;;;10.65;2.90;;;;;;;;;;5069625;28;20027;-68
2022/01/31 01:43:11;;;;;;;15.15;2.50;;;;;;;;;;5068761;28;20036;-68
2022/01/31 01:45:36;;;;;;;9.43;2.03;;;;;;;;;;5069309;28;20017;-67
2022/01/31 01:48:02;;;;;;;11.85;1.33;;;;;;;;;;5068791;28;20021;-68
2022/01/31 01:50:27;;;;;;;16.63;3.08;;;;;;;;;;5069753;28;20501;-68
2022/01/31 01:52:52;;;;;;;8.25;2.78;;;;;;;;;;5066897;28;20025;-68
2022/01/31 01:55:18;;;;;;;35.50;4.20;;;;;;;;;;5068610;28;20020;-68
2022/01/31 01:57:43;;;;;;;8.38;2.47;;;;;;;;;;5065137;28;20389;-68
2022/01/31 02:00:15;;;;;;;14.27;3.15;;;;;;;;;;5068866;28;20216;-68
2022/01/31 02:02:41;;;;;;;11.32;2.22;;;;;;;;;;5069605;28;20433;-68
2022/01/31 02:05:06;;;;;;;9.20;2.20;;;;;;;;;;5069270;28;20111;-68
2022/01/31 02:07:32;;;;;;;5.45;1.90;;;;;;;;;;5069369;28;20012;-68
2022/01/31 02:09:57;;;;;;;12.57;3.70;;;;;;;;;;5069019;28;20417;-68
2022/01/31 02:12:24;;;;;;;12.38;2.38;;;;;;;;;;5070001;28;20060;-68
2022/01/31 02:14:49;;;;;;;17.45;2.28;;;;;;;;;;5050783;28;20078;-68
2022/01/31 02:17:14;;;;;;;21.02;2.97;;;;;;;;;;5068327;28;20024;-67
2022/01/31 02:19:40;;;;;;;5.53;1.23;;;;;;;;;;5065228;28;20119;-67
2022/01/31 02:22:05;;;;;;;6.07;1.70;;;;;;;;;;5045173;28;20036;-67
2022/01/31 02:24:30;;;;;;;33.88;4.60;;;;;;;;;;5066475;28;20315;-68
2022/01/31 02:26:56;;;;;;;17.02;3.20;;;;;;;;;;5067251;28;20043;-68
2022/01/31 02:29:21;;;;;;;13.23;3.85;;;;;;;;;;5070398;28;20024;-68
2022/01/31 02:31:48;;;;;;;5.38;2.08;;;;;;;;;;5070932;28;20016;-68
2022/01/31 02:34:14;;;;;;;10.15;2.55;;;;;;;;;;5066796;28;20025;-67
2022/01/31 02:36:39;;;;;;;11.73;1.55;;;;;;;;;;5068987;28;20029;-68
2022/01/31 02:39:04;;;;;;;14.35;2.85;;;;;;;;;;5071155;28;20027;-67
2022/01/31 02:41:30;;;;;;;23.05;5.50;;;;;;;;;;5068324;28;20017;-67
2022/01/31 02:43:56;;;;;;;26.00;4.38;;;;;;;;;;5049989;28;20021;-67
2022/01/31 02:46:26;;;;;;;11.05;2.25;;;;;;;;;;5068983;28;20009;-68
2022/01/31 02:48:53;;;;;;;21.52;3.95;;;;;;;;;;5071971;28;20016;-68
2022/01/31 02:51:22;;;;;;;19.63;3.03;;;;;;;;;;5054081;28;20017;-68
2022/01/31 02:53:47;;;;;;;16.13;3.67;;;;;;;;;;5071833;28;20480;-68
2022/01/31 02:56:13;;;;;;;17.98;4.07;;;;;;;;;;5069771;28;20023;-68
2022/01/31 02:58:38;;;;;;;13.77;3.00;;;;;;;;;;5067968;28;20020;-68
2022/01/31 03:04:07;;;;;;;16.33;2.65;;;;;;;;;;5091543;22;20062;-84
2022/01/31 03:06:32;;;;;;;14.77;3.17;;;;;;;;;;5067587;28;20081;-85
2022/01/31 03:08:58;;;;;;;24.00;3.80;;;;;;;;;;5139766;22;20060;-67
2022/01/31 03:11:23;;;;;;;16.55;2.13;;;;;;;;;;5066958;28;20024;-67
2022/01/31 03:13:48;;;;;;;16.50;4.10;;;;;;;;;;5083914;28;20036;-67
2022/01/31 03:16:13;;;;;;;22.57;2.83;;;;;;;;;;5052940;28;20044;-67
2022/01/31 03:18:38;;;;;;;27.67;4.40;;;;;;;;;;5071678;28;20263;-67
2022/01/31 03:21:10;;;;;;;8.73;1.77;;;;;;;;;;5075922;22;20075;-91
2022/01/31 03:23:39;;;;;;;15.95;2.65;;;;;;;;;;5044597;28;20116;-90
2022/01/31 03:26:30;;;;;;;6.80;1.30;;;;;;;;;;5070940;28;20498;-91
2022/01/31 03:28:56;;;;;;;7.22;2.40;;;;;;;;;;5008401;28;20040;-90
2022/01/31 03:31:22;;;;;;;7.03;1.40;;;;;;;;;;5035443;28;20029;-88
2022/01/31 03:33:47;;;;;;;17.00;2.13;;;;;;;;;;5048296;28;20017;-88
2022/01/31 03:36:13;;;;;;;13.52;2.40;;;;;;;;;;5031594;28;20070;-89
2022/01/31 03:38:41;;;;;;;7.47;2.92;;;;;;;;;;5048010;28;20025;-91
2022/01/31 03:41:16;;;;;;;4.68;2.00;;;;;;;;;;5034653;28;20331;-89
2022/01/31 03:43:41;;;;;;;6.93;1.85;;;;;;;;;;5058008;28;20464;-89
2022/01/31 03:46:16;;;;;;;6.78;1.98;;;;;;;;;;5033327;28;20033;-92
2022/01/31 03:48:43;;;;;;;7.03;2.22;;;;;;;;;;5031323;28;20029;-91
2022/01/31 03:51:15;;;;;;;4.80;2.30;;;;;;;;;;5032046;28;20377;-90
2022/01/31 03:53:40;;;;;;;7.00;1.35;;;;;;;;;;5038732;28;20021;-90
2022/01/31 03:56:15;;;;;;;16.75;2.15;;;;;;;;;;5048898;28;20033;-89
2022/01/31 03:58:40;;;;;;;12.20;2.45;;;;;;;;;;5041221;28;20028;-89
2022/01/31 04:01:24;;;;;;;15.40;2.50;;;;;;;;;;5021432;28;20025;-91
2022/01/31 04:03:49;;;;;;;4.53;1.60;;;;;;;;;;5051035;28;20017;-91
2022/01/31 04:06:20;;;;;;;12.57;2.70;;;;;;;;;;5038492;28;20365;-89
2022/01/31 04:09:04;;;;;;;15.30;3.50;;;;;;;;;;5025814;28;20410;-92
2022/01/31 04:11:33;;;;;;;12.45;2.72;;;;;;;;;;5048198;28;20025;-89
2022/01/31 04:14:13;;;;;;;10.43;2.92;;;;;;;;;;5052379;28;20115;-91
2022/01/31 04:16:59;;;;;;;13.57;2.55;;;;;;;;;;5038531;28;20021;-90
2022/01/31 04:19:37;;;;;;;9.32;1.73;;;;;;;;;;5036042;28;20071;-91
2022/01/31 04:22:13;;;;;;;6.45;1.58;;;;;;;;;;5036817;28;20078;-89
2022/01/31 04:24:41;;;;;;;10.85;2.85;;;;;;;;;;5036476;28;20404;-89
2022/01/31 04:27:17;;;;;;;12.20;3.28;;;;;;;;;;5050505;28;20029;-90
2022/01/31 04:29:47;;;;;;;8.05;2.53;;;;;;;;;;5030345;28;20028;-91
2022/01/31 04:32:13;;;;;;;10.93;2.42;;;;;;;;;;5031825;28;20037;-89
2022/01/31 04:34:47;;;;;;;20.38;5.32;;;;;;;;;;5052047;28;20040;-90
2022/01/31 04:37:15;;;;;;;15.85;6.28;;;;;;;;;;5043292;28;20017;-88
2022/01/31 04:39:57;;;;;;;21.67;6.90;;;;;;;;;;5064141;28;20021;-92
2022/01/31 04:42:26;;;;;;;8.00;3.65;;;;;;;;;;5056655;28;20040;-89
2022/01/31 04:45:20;;;;;;;15.00;5.85;;;;;;;;;;5051973;28;20044;-90
2022/01/31 04:47:55;;;;;;;11.30;3.50;;;;;;;;;;5010981;28;20037;-88
2022/01/31 04:50:20;;;;;;;19.40;5.13;;;;;;;;;;5102144;22;20060;-70
2022/01/31 04:52:45;;;;;;;17.95;5.88;;;;;;;;;;5088245;28;20026;-69
2022/01/31 04:55:11;;;;;;;14.32;5.07;;;;;;;;;;5089687;28;20497;-69
2022/01/31 04:57:36;;;;;;;15.48;4.85;;;;;;;;;;5089509;28;20487;-70
2022/01/31 05:00:04;;;;;;;7.75;2.97;;;;;;;;;;5086160;28;20496;-69
2022/01/31 05:02:29;;;;;;;12.23;3.78;;;;;;;;;;5085680;28;20016;-69
2022/01/31 05:04:55;;;;;;;15.03;4.77;;;;;;;;;;5089355;28;20115;-69
2022/01/31 05:07:21;;;;;;;11.43;3.93;;;;;;;;;;5088524;28;20258;-69
2022/01/31 05:09:46;;;;;;;11.70;3.55;;;;;;;;;;5088600;28;20629;-69
2022/01/31 05:12:11;;;;;;;14.27;3.15;;;;;;;;;;5088366;28;20091;-69
2022/01/31 05:14:37;;;;;;;21.80;7.07;;;;;;;;;;5089685;28;20020;-69
2022/01/31 05:17:02;;;;;;;19.05;4.47;;;;;;;;;;5089768;28;20020;-69
2022/01/31 05:19:27;;;;;;;19.38;5.63;;;;;;;;;;5088540;28;20765;-69
2022/01/31 05:21:52;;;;;;;16.83;4.90;;;;;;;;;;5090136;28;20059;-69
2022/01/31 05:24:17;;;;;;;15.23;4.65;;;;;;;;;;5090350;28;20280;-69
2022/01/31 05:26:43;;;;;;;12.53;4.10;;;;;;;;;;5090154;28;20031;-69
2022/01/31 05:29:08;;;;;;;16.15;4.65;;;;;;;;;;5090318;28;20302;-69
2022/01/31 05:31:33;;;;;;;15.03;4.03;;;;;;;;;;5088904;28;20016;-69
2022/01/31 05:33:58;;;;;;;13.77;5.47;;;;;;;;;;5087998;28;20273;-69
2022/01/31 05:36:24;;;;;;;19.50;6.53;;;;;;;;;;5071243;28;20008;-69
2022/01/31 05:38:49;;;;;;;25.08;5.40;;;;;;;;;;5089593;28;20258;-68
2022/01/31 05:41:19;;;;;;;23.45;5.75;;;;;;;;;;5087927;28;20117;-68
2022/01/31 05:43:44;;;;;;;26.20;6.07;;;;;;;;;;5088639;28;20031;-69
2022/01/31 05:46:09;;;;;;;28.23;6.72;;;;;;;;;;5087701;28;20228;-68
2022/01/31 05:48:35;;;;;;;18.83;4.80;;;;;;;;;;5089806;28;20023;-69
2022/01/31 05:51:03;;;;;;;13.93;5.20;;;;;;;;;;5069973;28;20653;-69
2022/01/31 05:53:30;;;;;;;20.08;5.38;;;;;;;;;;5084659;28;20262;-69
2022/01/31 05:55:55;;;;;;;19.35;4.75;;;;;;;;;;5086122;28;20500;-68
2022/01/31 05:58:20;;;;;;;22.70;3.88;;;;;;;;;;5086734;28;20020;-71
2022/01/31 06:00:46;;;;;;;19.50;5.38;;;;;;;;;;5087459;28;20020;-69
2022/01/31 06:03:12;;;;;;;21.35;3.58;;;;;;;;;;5088512;28;20111;-69
2022/01/31 06:05:37;;;;;;;13.10;3.60;;;;;;;;;;5088246;28;20095;-70
2022/01/31 06:08:02;;;;;;;12.73;3.50;;;;;;;;;;5088630;28;20122;-70
2022/01/31 06:10:28;;;;;;;14.85;4.13;;;;;;;;;;5086400;28;20573;-70
2022/01/31 06:12:54;;;;;;;29.90;7.22;;;;;;;;;;5088244;28;20024;-70
2022/01/31 06:15:20;;;;;;;31.27;4.35;;;;;;;;;;5086793;28;20760;-69
2022/01/31 06:17:45;;;;;;;21.60;3.90;;;;;;;;;;5087477;28;20055;-71
2022/01/31 06:20:10;;;;;;;21.33;5.03;;;;;;;;;;5088910;28;20480;-71
2022/01/31 06:22:43;;;;;;;13.23;4.25;;;;;;;;;;5089518;28;20127;-69
2022/01/31 06:25:08;;;;;;;21.50;4.15;;;;;;;;;;5088870;28;20064;-68
2022/01/31 06:27:33;;;;;;;20.77;3.55;;;;;;;;;;5090305;28;20043;-70
2022/01/31 06:29:59;;;;;;;37.40;6.07;;;;;;;;;;5090600;28;20024;-70
2022/01/31 06:32:25;;;;;;;16.37;3.23;;;;;;;;;;5091520;28;20269;-70
2022/01/31 06:34:53;;;;;;;21.75;2.83;;;;;;;;;;5092013;28;20320;-71
2022/01/31 06:37:18;;;;;;;18.38;4.13;;;;;;;;;;5086673;28;20023;-69
2022/01/31 06:39:43;;;;;;;16.40;3.47;;;;;;;;;;5090124;28;20032;-68
2022/01/31 06:42:09;;;;;;;12.70;3.37;;;;;;;;;;5074867;28;20289;-70
2022/01/31 06:44:36;;;;;;;19.20;4.13;;;;;;;;;;5092991;28;20294;-69
2022/01/31 06:47:01;;;;;;;21.33;2.85;;;;;;;;;;5091597;28;20088;-68
2022/01/31 06:49:26;;;;;;;20.73;3.85;;;;;;;;;;5091338;28;20020;-69
2022/01/31 06:51:52;;;;;;;14.57;2.87;;;;;;;;;;5093361;28;20032;-69
2022/01/31 06:54:17;;;;;;;21.53;4.33;;;;;;;;;;5092467;28;20266;-69
2022/01/31 06:56:44;;;;;;;21.85;2.72;;;;;;;;;;5090597;28;20278;-69
2022/01/31 06:59:09;;;;;;;11.25;2.15;;;;;;;;;;5091518;28;20022;-69
2022/01/31 07:01:34;;;;;;;23.03;3.00;;;;;;;;;;5090843;28;20024;-69
2022/01/31 07:04:00;;;;;;;17.45;3.08;;;;;;;;;;5092075;28;20676;-69
2022/01/31 07:06:26;;;;;;;17.67;3.72;;;;;;;;;;5091637;28;20034;-69
2022/01/31 07:08:51;;;;;;;22.75;5.18;;;;;;;;;;5092196;28;20038;-69
2022/01/31 07:11:21;;;;;;;16.98;3.63;;;;;;;;;;5092166;28;20533;-69
2022/01/31 07:13:49;;;;;;;22.48;4.13;;;;;;;;;;5093465;28;20009;-70
2022/01/31 07:16:14;;;;;;;20.15;2.53;;;;;;;;;;5092149;28;20089;-70
2022/01/31 07:18:40;;;;;;;13.75;4.45;;;;;;;;;;5090495;28;20472;-70
2022/01/31 07:21:05;;;;;;;21.38;4.35;;;;;;;;;;5091277;28;20045;-70
2022/01/31 07:26:14;;;;;;;14.35;3.38;;;;;;;;;;5091009;28;20043;-70
2022/01/31 07:28:39;;;;;;;20.88;2.90;;;;;;;;;;5089708;28;20456;-70
2022/01/31 07:31:04;;;;;;;13.90;3.00;;;;;;;;;;5090052;28;20095;-70
2022/01/31 07:33:29;;;;;;;13.13;3.47;;;;;;;;;;5090315;28;20028;-70
2022/01/31 07:35:55;;;;;;;20.07;4.47;;;;;;;;;;5090566;28;20012;-70
2022/01/31 07:38:21;;;;;;;12.48;2.88;;;;;;;;;;5092278;28;20256;-70
2022/01/31 07:40:47;;;;;;;10.50;1.80;;;;;;;;;;5090640;28;20047;-70
2022/01/31 07:43:12;;;;;;;10.95;2.17;;;;;;;;;;5090123;28;20527;-70
2022/01/31 07:45:37;;;;;;;7.80;1.75;;;;;;;;;;5090446;28;20020;-70
2022/01/31 07:48:03;;;;;;;11.45;2.20;;;;;;;;;;5089146;28;20031;-70
2022/01/31 07:50:31;;;;;;;9.25;1.83;;;;;;;;;;5089058;28;20066;-70
2022/01/31 07:52:56;;;;;;;9.82;1.30;;;;;;;;;;5070450;28;20028;-70
2022/01/31 07:55:21;;;;;;;9.02;2.20;;;;;;;;;;5090342;28;20012;-70
2022/01/31 07:57:47;;;;;;;13.25;2.40;;;;;;;;;;5088774;28;20491;-69
2022/01/31 08:00:13;;;;;;;13.55;1.98;;;;;;;;;;5087828;28;20039;-70
2022/01/31 08:02:39;;;;;;;17.63;2.67;;;;;;;;;;5087440;28;20411;-69
2022/01/31 08:05:06;;;;;;;11.27;2.72;;;;;;;;;;5090504;28;20028;-69
2022/01/31 08:07:32;;;;;;;9.57;2.00;;;;;;;;;;5092076;28;20384;-69
2022/01/31 08:09:57;;;;;;;11.13;1.80;;;;;;;;;;5091909;28;20024;-69
2022/01/31 08:12:24;;;;;;;17.88;2.58;;;;;;;;;;5091855;28;20077;-70
2022/01/31 08:14:49;;;;;;;11.93;3.67;;;;;;;;;;5091029;28;20515;-69
2022/01/31 08:17:15;;;;;;;6.93;1.85;;;;;;;;;;5090957;28;20062;-69
2022/01/31 08:19:40;;;;;;;24.13;2.88;;;;;;;;;;5090653;28;20042;-70
2022/01/31 08:22:06;;;;;;;9.70;3.20;;;;;;;;;;5090507;28;20030;-69
2022/01/31 08:24:31;;;;;;;12.63;2.30;;;;;;;;;;5090740;28;20016;-69
2022/01/31 08:26:57;;;;;;;20.45;2.50;;;;;;;;;;5090731;28;20035;-69
2022/01/31 08:29:29;;;;;;;15.35;3.42;;;;;;;;;;5087823;28;20062;-69
2022/01/31 08:31:54;;;;;;;17.25;4.50;;;;;;;;;;5088788;28;20016;-69
2022/01/31 08:36:45;;;;;;;18.35;3.33;;;;;;;;;;5089659;28;20081;-69
2022/01/31 08:39:17;;;;;;;22.15;3.05;;;;;;;;;;5089955;28;20139;-69
2022/01/31 08:41:43;;;;;;;20.08;2.80;;;;;;;;;;5089713;28;20032;-69
2022/01/31 08:44:10;;;;;;;8.95;3.38;;;;;;;;;;5088438;28;20048;-69
2022/01/31 08:46:41;;;;;;;23.23;3.45;;;;;;;;;;5087153;28;20039;-69
2022/01/31 08:49:07;;;;;;;22.02;4.82;;;;;;;;;;5091180;28;20020;-69
2022/01/31 08:51:32;;;;;;;19.23;3.55;;;;;;;;;;5089865;28;20088;-69
2022/01/31 08:53:58;;;;;;;17.35;3.15;;;;;;;;;;5063919;28;20028;-70
2022/01/31 08:56:23;;;;;;;16.20;3.00;;;;;;;;;;5090236;28;20016;-70
2022/01/31 08:58:49;;;;;;;13.15;2.45;;;;;;;;;;5090663;28;20028;-70
2022/01/31 09:01:17;;;;;;;15.45;2.40;;;;;;;;;;5090529;28;20150;-70
2022/01/31 09:04:00;;;;;;;9.23;2.55;;;;;;;;;;5089972;28;20023;-70
2022/01/31 09:06:26;;;;;;;16.10;3.75;;;;;;;;;;5089852;28;20069;-70
2022/01/31 09:08:52;;;;;;;19.52;2.95;;;;;;;;;;5090427;28;20024;-69
2022/01/31 09:11:17;;;;;;;9.93;2.83;;;;;;;;;;5090511;28;20357;-70
2022/01/31 09:13:43;;;;;;;9.88;3.25;;;;;;;;;;5086414;28;20051;-70
2022/01/31 09:16:08;;;;;;;15.55;3.00;;;;;;;;;;5081702;28;20028;-70
2022/01/31 09:18:33;;;;;;;11.70;2.70;;;;;;;;;;5090149;28;20031;-70
2022/01/31 09:20:59;;;;;;;17.80;2.65;;;;;;;;;;5098758;22;20253;-70
2022/01/31 09:23:25;;;;;;;9.70;2.10;;;;;;;;;;5088011;28;20024;-70
2022/01/31 09:25:50;;;;;;;14.40;1.98;;;;;;;;;;5088377;28;20459;-70
2022/01/31 09:28:16;;;;;;;13.50;2.25;;;;;;;;;;5089427;28;20016;-69
2022/01/31 09:30:42;;;;;;;17.42;2.50;;;;;;;;;;5069708;28;20024;-69
2022/01/31 09:33:08;;;;;;;20.83;4.25;;;;;;;;;;5071029;28;20051;-69
2022/01/31 09:35:34;;;;;;;16.23;2.70;;;;;;;;;;5089710;28;20624;-69
2022/01/31 09:38:00;;;;;;;18.20;4.38;;;;;;;;;;5089455;28;20114;-69
2022/01/31 09:40:25;;;;;;;14.73;2.50;;;;;;;;;;5070988;28;20055;-69
2022/01/31 09:45:49;;;;;;;21.55;3.20;;;;;;;;;;5089939;28;20039;-69
2022/01/31 09:48:35;;;;;;;21.00;5.10;;;;;;;;;;5090312;28;20100;-69
2022/01/31 09:51:14;;;;;;;22.40;5.40;;;;;;;;;;5089398;28;20048;-69
2022/01/31 09:53:41;;;;;;;18.45;4.90;;;;;;;;;;5087481;28;20071;-69
2022/01/31 09:56:10;;;;;;;21.42;5.55;;;;;;;;;;5090564;28;20049;-69
2022/01/31 09:58:35;;;;;;;15.82;4.20;;;;;;;;;;5096069;28;20016;-69
2022/01/31 10:01:11;;;;;;;10.75;2.88;;;;;;;;;;5087273;28;20077;-69
2022/01/31 10:03:50;;;;;;;22.67;5.32;;;;;;;;;;5089206;28;20020;-69
2022/01/31 10:06:26;;;;;;;18.45;2.45;;;;;;;;;;5091909;28;20020;-69
2022/01/31 10:09:14;;;;;;;9.43;2.70;;;;;;;;;;5089718;28;20379;-70
2022/01/31 10:11:51;;;;;;;13.90;4.15;;;;;;;;;;5077876;28;20508;-69
2022/01/31 10:17:30;;;;;;;12.13;3.15;;;;;;;;;;5087669;28;20529;-69
2022/01/31 10:19:56;;;;;;;12.88;3.50;;;;;;;;;;5077101;28;20020;-69
2022/01/31 10:22:25;;;;;;;15.13;3.33;;;;;;;;;;5092715;28;20048;-69
2022/01/31 10:24:52;;;;;;;23.35;3.40;;;;;;;;;;5089043;28;20099;-69
2022/01/31 10:27:18;;;;;;;26.38;3.42;;;;;;;;;;5085385;28;20379;-69
2022/01/31 10:29:45;;;;;;;20.73;5.03;;;;;;;;;;5088704;28;20426;-69
2022/01/31 10:32:12;;;;;;;17.67;3.40;;;;;;;;;;5089160;28;20027;-69
2022/01/31 10:34:45;;;;;;;12.63;2.72;;;;;;;;;;5089366;28;20103;-69
2022/01/31 10:37:13;;;;;;;19.63;3.67;;;;;;;;;;5089578;28;20023;-69
2022/01/31 10:51:42;;;;;;;10.40;2.22;;;;;;;;;;5085352;28;20078;-70
2022/01/31 10:54:12;;;;;;;16.10;3.45;;;;;;;;;;5086930;28;20022;-70
2022/01/31 10:56:41;;;;;;;18.58;4.68;;;;;;;;;;5089137;28;20046;-70
2022/01/31 10:59:08;;;;;;;19.80;4.05;;;;;;;;;;5089308;28;20028;-70
2022/01/31 11:01:34;;;;;;;15.98;3.00;;;;;;;;;;5089220;28;20065;-70
2022/01/31 11:04:04;;;;;;;27.15;4.15;;;;;;;;;;5088548;28;20028;-70
2022/01/31 11:06:29;;;;;;;16.25;3.33;;;;;;;;;;5092830;28;20012;-70
2022/01/31 11:08:59;;;;;;;16.38;3.17;;;;;;;;;;5091754;28;20027;-69
2022/01/31 11:11:24;;;;;;;19.27;2.33;;;;;;;;;;5091669;28;20016;-69
2022/01/31 11:13:50;;;;;;;33.25;4.22;;;;;;;;;;5074021;28;20036;-69
2022/01/31 11:16:17;;;;;;;17.48;3.58;;;;;;;;;;5091985;28;20023;-69
2022/01/31 11:18:45;;;;;;;20.33;3.47;;;;;;;;;;5091885;28;20020;-69
2022/01/31 11:21:12;;;;;;;18.83;3.75;;;;;;;;;;5091055;28;20055;-69
2022/01/31 11:23:40;;;;;;;24.63;3.85;;;;;;;;;;5091362;28;20084;-68
2022/01/31 11:26:09;;;;;;;23.08;3.50;;;;;;;;;;5091249;28;20111;-68
2022/01/31 11:28:36;;;;;;;16.75;2.85;;;;;;;;;;5103347;28;20490;-69
2022/01/31 11:31:02;;;;;;;15.73;2.72;;;;;;;;;;5094452;28;20016;-69
2022/01/31 11:33:27;;;;;;;12.77;2.67;;;;;;;;;;5091864;28;20016;-69
2022/01/31 11:35:53;;;;;;;12.45;2.92;;;;;;;;;;5092057;28;20039;-69
2022/01/31 11:38:19;;;;;;;13.90;3.35;;;;;;;;;;5090860;28;20506;-69
2022/01/31 11:40:44;;;;;;;14.48;2.35;;;;;;;;;;5091886;28;20024;-69
2022/01/31 11:43:10;;;;;;;20.95;3.72;;;;;;;;;;5091655;28;20464;-69
2022/01/31 11:45:39;;;;;;;19.15;3.55;;;;;;;;;;5090754;28;20055;-69
2022/01/31 11:48:06;;;;;;;21.83;2.63;;;;;;;;;;5090951;28;20016;-69
2022/01/31 11:50:31;;;;;;;18.48;3.58;;;;;;;;;;5092601;28;20024;-69
2022/01/31 11:52:58;;;;;;;25.55;4.10;;;;;;;;;;5090794;28;20495;-69
2022/01/31 11:55:24;;;;;;;17.98;5.00;;;;;;;;;;5091419;28;20016;-69
2022/01/31 11:57:51;;;;;;;26.63;5.70;;;;;;;;;;5091597;28;20380;-69
2022/01/31 12:00:17;;;;;;;28.88;5.13;;;;;;;;;;5090920;28;20047;-69
2022/01/31 12:02:53;;;;;;;38.00;6.85;;;;;;;;;;5090748;28;20548;-69
2022/01/31 12:05:21;;;;;;;18.63;3.97;;;;;;;;;;5091395;28;20074;-69
2022/01/31 12:07:46;;;;;;;29.65;4.03;;;;;;;;;;5089672;28;20008;-69
2022/01/31 12:10:22;;;;;;;28.00;5.53;;;;;;;;;;5089598;28;20039;-69
2022/01/31 12:12:56;;;;;;;38.95;8.35;;;;;;;;;;5086891;28;20070;-69
2022/01/31 12:15:47;;;;;;;24.15;3.97;;;;;;;;;;5090104;28;20020;-69
2022/01/31 12:18:42;;;;;;;35.10;5.13;;;;;;;;;;5069654;28;20081;-69
2022/01/31 12:23:54;;;;;;;47.88;6.53;;;;;;;;;;5091481;28;21727;-69
2022/01/31 12:26:32;;;;;;;25.98;6.07;;;;;;;;;;5091638;28;20492;-69
2022/01/31 12:28:58;;;;;;;40.50;10.27;;;;;;;;;;5091191;28;20024;-69
2022/01/31 12:31:28;;;;;;;41.95;6.38;;;;;;;;;;5073110;28;20068;-69
2022/01/31 12:33:53;;;;;;;42.30;11.18;;;;;;;;;;5091635;28;20024;-69
2022/01/31 12:36:44;;;;;;;42.67;7.70;;;;;;;;;;5073261;28;20043;-69
2022/01/31 12:39:35;;;;;;;31.23;5.50;;;;;;;;;;5091037;28;20032;-69
2022/01/31 12:42:30;;;;;;;34.65;4.78;;;;;;;;;;5090790;28;20024;-69
2022/01/31 12:44:55;;;;;;;50.42;10.85;;;;;;;;;;5091652;28;20095;-69
2022/01/31 12:47:20;;;;;;;34.50;5.60;;;;;;;;;;5091385;28;20149;-69
2022/01/31 12:50:05;;;;;;;31.55;4.57;;;;;;;;;;5090647;28;20016;-69
2022/01/31 12:52:32;;;;;;;19.92;3.60;;;;;;;;;;5072783;28;20032;-69
2022/01/31 12:55:07;;;;;;;21.25;5.75;;;;;;;;;;5089795;28;20020;-69
2022/01/31 12:57:32;;;;;;;31.85;6.40;;;;;;;;;;5066506;28;20028;-69
2022/01/31 12:59:58;;;;;;;22.10;3.15;;;;;;;;;;5090346;28;20028;-69
2022/01/31 13:02:23;;;;;;;26.85;4.25;;;;;;;;;;5090409;28;20028;-69
2022/01/31 13:04:48;;;;;;;26.73;3.58;;;;;;;;;;5071382;28;20020;-69
2022/01/31 13:07:15;;;;;;;24.38;4.50;;;;;;;;;;5090382;28;20047;-69
2022/01/31 13:09:40;;;;;;;18.75;3.53;;;;;;;;;;5090653;28;20047;-69
2022/01/31 13:12:07;;;;;;;33.05;4.60;;;;;;;;;;5071689;28;20096;-70
2022/01/31 13:14:34;;;;;;;27.33;3.63;;;;;;;;;;5072326;28;20020;-70
2022/01/31 13:17:08;;;;;;;25.50;3.90;;;;;;;;;;5090426;28;20466;-69
2022/01/31 13:19:35;;;;;;;22.88;3.80;;;;;;;;;;5090383;28;20024;-69
2022/01/31 13:22:02;;;;;;;28.40;5.13;;;;;;;;;;5089709;28;20028;-69
2022/01/31 13:24:32;;;;;;;27.42;4.78;;;;;;;;;;5090474;28;20418;-69
2022/01/31 13:26:58;;;;;;;22.75;5.13;;;;;;;;;;5090366;28;20055;-69
2022/01/31 13:29:37;;;;;;;27.33;4.47;;;;;;;;;;5090446;28;20028;-69
2022/01/31 13:32:15;;;;;;;20.27;2.85;;;;;;;;;;5089027;28;20049;-69
2022/01/31 13:34:41;;;;;;;32.20;5.13;;;;;;;;;;5089073;28;20023;-69
2022/01/31 13:37:25;;;;;;;14.45;3.33;;;;;;;;;;5089476;28;20087;-69
2022/01/31 13:39:54;;;;;;;29.08;4.32;;;;;;;;;;5077921;28;20027;-69
2022/01/31 13:42:24;;;;;;;32.45;3.97;;;;;;;;;;5088660;28;20032;-69
2022/01/31 13:44:51;;;;;;;;;;;;;;;;;;5087889;28;20047;-69
2022/01/31 13:47:16;;;;;;;19.08;3.40;;;;;;;;;;5087649;28;19908;-69
2022/01/31 13:49:50;;;;;;;17.35;3.65;;;;;;;;;;5089123;28;20026;-70
2022/01/31 13:52:15;;;;;;;24.42;3.92;;;;;;;;;;5088573;28;20111;-67
2022/01/31 13:54:42;;;;;;;23.23;4.40;;;;;;;;;;5089769;28;20100;-67
2022/01/31 13:57:11;;;;;;;26.58;4.40;;;;;;;;;;5090483;28;20454;-67
2022/01/31 13:59:37;;;;;;;22.60;4.18;;;;;;;;;;5068137;28;20024;-69
2022/01/31 14:02:10;;;;;;;31.52;4.80;;;;;;;;;;5088823;28;20035;-70
2022/01/31 14:04:37;;;;;;;27.00;3.85;;;;;;;;;;5087893;28;20020;-70
2022/01/31 14:07:02;;;;;;;29.85;3.65;;;;;;;;;;5069965;28;20028;-70
2022/01/31 14:09:34;;;;;;;24.30;5.80;;;;;;;;;;5089111;28;20097;-70
2022/01/31 14:12:00;;;;;;;38.25;7.07;;;;;;;;;;5070874;28;20081;-70
2022/01/31 14:14:28;;;;;;;28.92;6.05;;;;;;;;;;5089892;28;20377;-70
2022/01/31 14:16:53;;;;;;;25.42;6.22;;;;;;;;;;5071406;28;20379;-70
2022/01/31 14:19:18;;;;;;;24.17;4.53;;;;;;;;;;5089504;28;20020;-70
2022/01/31 14:21:45;;;;;;;29.98;5.93;;;;;;;;;;5088697;28;20103;-70
2022/01/31 14:24:10;;;;;;;28.52;4.18;;;;;;;;;;5087871;28;20445;-70
2022/01/31 14:26:50;;;;;;;24.20;3.78;;;;;;;;;;5088686;28;20081;-70
2022/01/31 14:29:15;;;;;;;25.90;4.55;;;;;;;;;;5082422;28;20012;-70
2022/01/31 14:31:42;;;;;;;21.77;3.38;;;;;;;;;;5090219;28;20041;-68
2022/01/31 14:34:08;;;;;;;33.95;4.22;;;;;;;;;;5087708;28;20020;-68
2022/01/31 14:36:44;;;;;;;15.93;4.03;;;;;;;;;;5089558;28;20020;-68
2022/01/31 14:49:38;;;;;;;32.53;4.93;;;;;;;;;;5092512;28;20024;-68
2022/01/31 14:52:08;;;;;;;26.85;5.93;;;;;;;;;;5091951;28;20028;-68
2022/01/31 14:54:34;;;;;;;27.92;4.13;;;;;;;;;;5092910;28;20035;-68
2022/01/31 14:57:00;;;;;;;32.35;4.82;;;;;;;;;;5074950;28;20036;-68
2022/01/31 14:59:25;;;;;;;35.00;6.22;;;;;;;;;;5092961;28;20027;-69
2022/01/31 15:01:50;;;;;;;33.28;6.18;;;;;;;;;;5092552;28;20039;-68
2022/01/31 15:04:17;;;;;;;41.42;6.22;;;;;;;;;;5092819;28;20044;-68
2022/01/31 15:06:42;;;;;;;42.92;6.25;;;;;;;;;;5092974;28;20020;-68
2022/01/31 15:09:07;;;;;;;26.80;5.07;;;;;;;;;;5092322;28;20088;-68
2022/01/31 15:11:32;;;;;;;29.30;6.17;;;;;;;;;;5074709;28;20285;-69
2022/01/31 15:13:58;;;;;;;41.30;5.88;;;;;;;;;;5074273;28;20357;-68